sensor_id;sensor_type;location;lat;lon;timestamp;pressure;altitude;pressure_sealevel;temperature;humidity
72721;BME280;60835;50.974;10.322;2022-10-16T00:01:53;96836.03;;;15.43;100.00
72721;BME280;60835;50.974;10.322;2022-10-16T00:04:19;96842.41;;;15.42;100.00
72721;BME280;60835;50.974;10.322;2022-10-16T00:06:45;96848.59;;;15.36;100.00
72721;BME280;60835;50.974;10.322;2022-10-16T00:09:13;96839.31;;;15.27;100.00
72721;BME280;60835;50.974;10.322;2022-10-16T00:11:40;96848.16;;;15.39;100.00
72721;BME280;60835;50.974;10.322;2022-10-16T00:14:10;96837.81;;;15.31;100.00
72721;BME280;60835;50.974;10.322;2022-10-16T00:16:37;96854.66;;;15.25;100.00
72721;BME280;60835;50.974;10.322;2022-10-16T00:19:04;96867.69;;;15.33;100.00
72721;BME280;60835;50.974;10.322;2022-10-16T00:21:32;96865.28;;;15.32;100.00
72721;BME280;60835;50.974;10.322;2022-10-16T00:24:05;96865.66;;;15.35;100.00
72721;BME280;60835;50.974;10.322;2022-10-16T00:26:35;96858.09;;;15.32;100.00
72721;BME280;60835;50.974;10.322;2022-10-16T00:29:02;96865.22;;;15.56;100.00
72721;BME280;60835;50.974;10.322;2022-10-16T00:31:29;96858.16;;;15.44;100.00
72721;BME280;60835;50.974;10.322;2022-10-16T00:33:56;96878.19;;;15.53;100.00
72721;BME280;60835;50.974;10.322;2022-10-16T00:36:24;96869.38;;;15.52;100.00
72721;BME280;60835;50.974;10.322;2022-10-16T00:38:52;96863.00;;;15.53;100.00
72721;BME280;60835;50.974;10.322;2022-10-16T00:41:22;96876.19;;;15.48;100.00
72721;BME280;60835;50.974;10.322;2022-10-16T00:44:00;96865.88;;;15.52;100.00
72721;BME280;60835;50.974;10.322;2022-10-16T00:49:06;96864.56;;;15.61;100.00
72721;BME280;60835;50.974;10.322;2022-10-16T00:51:42;96849.53;;;15.48;100.00
72721;BME280;60835;50.974;10.322;2022-10-16T00:54:18;96862.91;;;15.60;100.00
72721;BME280;60835;50.974;10.322;2022-10-16T00:56:46;96856.19;;;15.57;100.00
72721;BME280;60835;50.974;10.322;2022-10-16T00:59:20;96865.38;;;15.61;100.00
72721;BME280;60835;50.974;10.322;2022-10-16T01:01:48;96862.56;;;15.56;100.00
72721;BME280;60835;50.974;10.322;2022-10-16T01:04:15;96870.69;;;15.61;100.00
72721;BME280;60835;50.974;10.322;2022-10-16T01:09:24;96885.06;;;15.60;100.00
72721;BME280;60835;50.974;10.322;2022-10-16T01:14:46;96872.44;;;15.67;100.00
72721;BME280;60835;50.974;10.322;2022-10-16T01:17:21;96844.50;;;15.58;100.00
72721;BME280;60835;50.974;10.322;2022-10-16T01:20:04;96868.47;;;15.58;100.00
72721;BME280;60835;50.974;10.322;2022-10-16T01:23:05;96892.53;;;15.52;100.00
72721;BME280;60835;50.974;10.322;2022-10-16T01:31:18;96899.13;;;15.49;100.00
72721;BME280;60835;50.974;10.322;2022-10-16T01:33:51;96896.28;;;15.44;100.00
72721;BME280;60835;50.974;10.322;2022-10-16T01:36:27;96886.34;;;15.33;100.00
72721;BME280;60835;50.974;10.322;2022-10-16T01:39:00;96898.06;;;15.32;100.00
72721;BME280;60835;50.974;10.322;2022-10-16T01:41:34;96914.78;;;15.39;100.00
72721;BME280;60835;50.974;10.322;2022-10-16T01:44:05;96915.81;;;15.38;100.00
72721;BME280;60835;50.974;10.322;2022-10-16T01:46:37;96920.13;;;15.39;100.00
72721;BME280;60835;50.974;10.322;2022-10-16T01:49:06;96928.63;;;15.30;100.00
72721;BME280;60835;50.974;10.322;2022-10-16T01:51:32;96937.88;;;15.27;100.00
72721;BME280;60835;50.974;10.322;2022-10-16T01:54:01;96918.31;;;15.15;100.00
72721;BME280;60835;50.974;10.322;2022-10-16T01:56:29;96933.09;;;15.11;100.00
72721;BME280;60835;50.974;10.322;2022-10-16T01:59:23;96931.53;;;15.03;100.00
72721;BME280;60835;50.974;10.322;2022-10-16T02:01:59;96932.28;;;15.10;100.00
72721;BME280;60835;50.974;10.322;2022-10-16T02:04:32;96932.34;;;15.04;100.00
72721;BME280;60835;50.974;10.322;2022-10-16T02:06:59;96943.44;;;15.01;100.00
72721;BME280;60835;50.974;10.322;2022-10-16T02:09:26;96912.34;;;14.95;100.00
72721;BME280;60835;50.974;10.322;2022-10-16T02:11:54;96931.06;;;15.06;100.00
72721;BME280;60835;50.974;10.322;2022-10-16T02:14:23;96945.06;;;15.02;100.00
72721;BME280;60835;50.974;10.322;2022-10-16T02:16:50;96924.09;;;14.87;100.00
72721;BME280;60835;50.974;10.322;2022-10-16T02:19:18;96938.22;;;14.88;100.00
72721;BME280;60835;50.974;10.322;2022-10-16T02:21:54;96957.31;;;14.85;100.00
72721;BME280;60835;50.974;10.322;2022-10-16T02:24:32;96957.06;;;14.86;100.00
72721;BME280;60835;50.974;10.322;2022-10-16T02:29:39;96953.72;;;14.97;100.00
72721;BME280;60835;50.974;10.322;2022-10-16T02:32:08;96930.91;;;15.01;100.00
72721;BME280;60835;50.974;10.322;2022-10-16T02:34:36;96941.25;;;15.16;100.00
72721;BME280;60835;50.974;10.322;2022-10-16T02:37:04;96915.22;;;14.93;100.00
72721;BME280;60835;50.974;10.322;2022-10-16T02:39:31;96924.06;;;15.12;100.00
72721;BME280;60835;50.974;10.322;2022-10-16T02:41:59;96912.66;;;15.05;100.00
72721;BME280;60835;50.974;10.322;2022-10-16T02:44:25;96919.56;;;15.12;100.00
72721;BME280;60835;50.974;10.322;2022-10-16T02:46:51;96901.44;;;15.03;100.00
72721;BME280;60835;50.974;10.322;2022-10-16T02:49:18;96893.00;;;15.06;100.00
72721;BME280;60835;50.974;10.322;2022-10-16T02:51:44;96927.34;;;15.14;100.00
72721;BME280;60835;50.974;10.322;2022-10-16T02:54:11;96914.47;;;15.11;100.00
72721;BME280;60835;50.974;10.322;2022-10-16T02:56:38;96909.28;;;15.16;100.00
72721;BME280;60835;50.974;10.322;2022-10-16T02:59:05;96905.88;;;15.09;100.00
72721;BME280;60835;50.974;10.322;2022-10-16T03:01:31;96917.72;;;15.13;100.00
72721;BME280;60835;50.974;10.322;2022-10-16T03:03:58;96899.94;;;15.07;100.00
72721;BME280;60835;50.974;10.322;2022-10-16T03:06:24;96908.84;;;15.19;100.00
72721;BME280;60835;50.974;10.322;2022-10-16T03:08:51;96917.13;;;15.11;100.00
72721;BME280;60835;50.974;10.322;2022-10-16T03:11:17;96933.47;;;15.14;100.00
72721;BME280;60835;50.974;10.322;2022-10-16T03:13:44;96927.41;;;15.07;100.00
72721;BME280;60835;50.974;10.322;2022-10-16T03:16:10;96939.31;;;15.05;100.00
72721;BME280;60835;50.974;10.322;2022-10-16T03:18:37;96928.75;;;14.92;100.00
72721;BME280;60835;50.974;10.322;2022-10-16T03:21:03;96967.94;;;15.09;100.00
72721;BME280;60835;50.974;10.322;2022-10-16T03:23:29;96973.06;;;15.11;100.00
72721;BME280;60835;50.974;10.322;2022-10-16T03:25:56;96952.78;;;15.10;100.00
72721;BME280;60835;50.974;10.322;2022-10-16T03:28:22;96933.84;;;15.18;100.00
72721;BME280;60835;50.974;10.322;2022-10-16T03:30:49;96937.22;;;15.07;100.00
72721;BME280;60835;50.974;10.322;2022-10-16T03:33:15;96941.53;;;15.08;100.00
72721;BME280;60835;50.974;10.322;2022-10-16T03:35:42;96943.75;;;15.11;100.00
72721;BME280;60835;50.974;10.322;2022-10-16T03:38:08;96955.00;;;15.13;100.00
72721;BME280;60835;50.974;10.322;2022-10-16T03:40:35;96965.28;;;15.09;100.00
72721;BME280;60835;50.974;10.322;2022-10-16T03:43:01;96953.81;;;15.09;100.00
72721;BME280;60835;50.974;10.322;2022-10-16T03:45:28;96972.47;;;15.09;100.00
72721;BME280;60835;50.974;10.322;2022-10-16T03:47:54;96968.31;;;15.13;100.00
72721;BME280;60835;50.974;10.322;2022-10-16T03:50:21;96956.81;;;15.19;100.00
72721;BME280;60835;50.974;10.322;2022-10-16T03:52:47;96961.97;;;15.14;100.00
72721;BME280;60835;50.974;10.322;2022-10-16T03:55:14;96952.34;;;15.13;100.00
72721;BME280;60835;50.974;10.322;2022-10-16T03:57:40;96953.91;;;14.96;100.00
72721;BME280;60835;50.974;10.322;2022-10-16T04:00:07;96965.22;;;14.91;100.00
72721;BME280;60835;50.974;10.322;2022-10-16T04:02:33;96989.66;;;15.06;100.00
72721;BME280;60835;50.974;10.322;2022-10-16T04:05:00;96993.16;;;15.07;100.00
72721;BME280;60835;50.974;10.322;2022-10-16T04:07:27;97001.16;;;15.07;100.00
72721;BME280;60835;50.974;10.322;2022-10-16T04:09:53;96999.53;;;15.06;100.00
72721;BME280;60835;50.974;10.322;2022-10-16T04:12:20;97003.66;;;15.02;100.00
72721;BME280;60835;50.974;10.322;2022-10-16T04:14:46;96986.47;;;14.98;100.00
72721;BME280;60835;50.974;10.322;2022-10-16T04:17:13;97005.19;;;15.16;100.00
72721;BME280;60835;50.974;10.322;2022-10-16T04:19:39;97000.13;;;15.08;100.00
72721;BME280;60835;50.974;10.322;2022-10-16T04:22:05;97002.34;;;15.11;100.00
72721;BME280;60835;50.974;10.322;2022-10-16T04:24:32;97010.94;;;15.13;100.00
72721;BME280;60835;50.974;10.322;2022-10-16T04:26:58;97020.19;;;15.10;100.00
72721;BME280;60835;50.974;10.322;2022-10-16T04:29:25;97018.94;;;15.13;100.00
72721;BME280;60835;50.974;10.322;2022-10-16T04:31:51;97016.59;;;15.23;100.00
72721;BME280;60835;50.974;10.322;2022-10-16T04:34:18;97026.66;;;15.21;100.00
72721;BME280;60835;50.974;10.322;2022-10-16T04:36:47;97032.66;;;15.16;100.00
72721;BME280;60835;50.974;10.322;2022-10-16T04:39:14;97033.06;;;15.13;100.00
72721;BME280;60835;50.974;10.322;2022-10-16T04:41:41;97040.84;;;15.15;100.00
72721;BME280;60835;50.974;10.322;2022-10-16T04:44:07;97022.25;;;15.08;100.00
72721;BME280;60835;50.974;10.322;2022-10-16T04:46:34;97040.06;;;15.08;100.00
72721;BME280;60835;50.974;10.322;2022-10-16T04:49:00;97055.63;;;15.11;100.00
72721;BME280;60835;50.974;10.322;2022-10-16T04:51:27;97055.66;;;15.04;100.00
72721;BME280;60835;50.974;10.322;2022-10-16T04:53:54;97080.44;;;15.05;100.00
72721;BME280;60835;50.974;10.322;2022-10-16T04:56:21;97076.59;;;15.01;100.00
72721;BME280;60835;50.974;10.322;2022-10-16T04:58:48;97071.28;;;15.01;100.00
72721;BME280;60835;50.974;10.322;2022-10-16T05:01:14;97081.88;;;15.07;100.00
72721;BME280;60835;50.974;10.322;2022-10-16T05:03:40;97074.88;;;15.13;100.00
72721;BME280;60835;50.974;10.322;2022-10-16T05:06:07;97082.69;;;15.08;100.00
72721;BME280;60835;50.974;10.322;2022-10-16T05:08:34;97078.19;;;15.08;100.00
72721;BME280;60835;50.974;10.322;2022-10-16T05:11:00;97089.47;;;15.04;100.00
72721;BME280;60835;50.974;10.322;2022-10-16T05:13:27;97090.88;;;15.06;100.00
72721;BME280;60835;50.974;10.322;2022-10-16T05:15:54;97079.44;;;15.06;100.00
72721;BME280;60835;50.974;10.322;2022-10-16T05:18:20;97081.88;;;15.07;100.00
72721;BME280;60835;50.974;10.322;2022-10-16T05:20:46;97099.06;;;15.11;100.00
72721;BME280;60835;50.974;10.322;2022-10-16T05:23:13;97080.19;;;15.13;100.00
72721;BME280;60835;50.974;10.322;2022-10-16T05:25:39;97042.91;;;15.13;100.00
72721;BME280;60835;50.974;10.322;2022-10-16T05:28:06;97017.75;;;15.09;100.00
72721;BME280;60835;50.974;10.322;2022-10-16T05:30:32;97062.66;;;14.99;100.00
72721;BME280;60835;50.974;10.322;2022-10-16T05:32:59;97029.94;;;14.92;100.00
72721;BME280;60835;50.974;10.322;2022-10-16T05:35:25;97038.53;;;14.94;100.00
72721;BME280;60835;50.974;10.322;2022-10-16T05:37:52;97035.09;;;14.87;100.00
72721;BME280;60835;50.974;10.322;2022-10-16T05:40:18;97054.56;;;14.87;100.00
72721;BME280;60835;50.974;10.322;2022-10-16T05:42:45;97050.25;;;14.86;100.00
72721;BME280;60835;50.974;10.322;2022-10-16T05:45:12;97061.72;;;14.87;100.00
72721;BME280;60835;50.974;10.322;2022-10-16T05:47:39;97046.00;;;14.79;100.00
72721;BME280;60835;50.974;10.322;2022-10-16T05:50:06;97051.66;;;14.89;100.00
72721;BME280;60835;50.974;10.322;2022-10-16T05:52:32;97060.72;;;14.88;100.00
72721;BME280;60835;50.974;10.322;2022-10-16T05:54:59;97059.50;;;14.84;100.00
72721;BME280;60835;50.974;10.322;2022-10-16T05:57:25;97049.69;;;14.78;100.00
72721;BME280;60835;50.974;10.322;2022-10-16T05:59:52;97062.31;;;14.89;100.00
72721;BME280;60835;50.974;10.322;2022-10-16T06:02:18;97069.75;;;14.80;100.00
72721;BME280;60835;50.974;10.322;2022-10-16T06:04:45;97071.41;;;14.75;100.00
72721;BME280;60835;50.974;10.322;2022-10-16T06:07:11;97081.03;;;14.76;100.00
72721;BME280;60835;50.974;10.322;2022-10-16T06:09:38;97085.75;;;14.74;100.00
72721;BME280;60835;50.974;10.322;2022-10-16T06:12:05;97081.47;;;14.73;100.00
72721;BME280;60835;50.974;10.322;2022-10-16T06:14:32;97044.13;;;14.48;100.00
72721;BME280;60835;50.974;10.322;2022-10-16T06:16:58;97078.84;;;14.66;100.00
72721;BME280;60835;50.974;10.322;2022-10-16T06:19:25;97083.75;;;14.69;100.00
72721;BME280;60835;50.974;10.322;2022-10-16T06:21:51;97096.84;;;14.71;100.00
72721;BME280;60835;50.974;10.322;2022-10-16T06:24:17;97095.59;;;14.73;100.00
72721;BME280;60835;50.974;10.322;2022-10-16T06:26:44;97105.00;;;14.76;100.00
72721;BME280;60835;50.974;10.322;2022-10-16T06:29:10;97109.91;;;14.79;100.00
72721;BME280;60835;50.974;10.322;2022-10-16T06:31:37;97121.31;;;14.86;100.00
72721;BME280;60835;50.974;10.322;2022-10-16T06:34:03;97120.97;;;14.76;100.00
72721;BME280;60835;50.974;10.322;2022-10-16T06:36:32;97128.72;;;14.84;100.00
72721;BME280;60835;50.974;10.322;2022-10-16T06:38:58;97113.97;;;14.88;100.00
72721;BME280;60835;50.974;10.322;2022-10-16T06:41:25;97096.00;;;14.77;100.00
72721;BME280;60835;50.974;10.322;2022-10-16T06:43:51;97100.03;;;14.86;100.00
72721;BME280;60835;50.974;10.322;2022-10-16T06:46:21;97102.50;;;14.87;100.00
72721;BME280;60835;50.974;10.322;2022-10-16T06:48:48;97107.16;;;14.92;100.00
72721;BME280;60835;50.974;10.322;2022-10-16T06:51:20;97116.66;;;15.12;100.00
72721;BME280;60835;50.974;10.322;2022-10-16T06:53:49;97125.22;;;15.21;100.00
72721;BME280;60835;50.974;10.322;2022-10-16T06:56:32;97111.81;;;15.34;100.00
72721;BME280;60835;50.974;10.322;2022-10-16T06:59:00;97102.16;;;15.33;100.00
72721;BME280;60835;50.974;10.322;2022-10-16T07:01:27;97087.75;;;15.47;100.00
72721;BME280;60835;50.974;10.322;2022-10-16T07:03:53;97085.25;;;15.52;100.00
72721;BME280;60835;50.974;10.322;2022-10-16T07:06:22;97055.34;;;15.50;100.00
72721;BME280;60835;50.974;10.322;2022-10-16T07:08:49;97016.25;;;15.62;100.00
72721;BME280;60835;50.974;10.322;2022-10-16T07:11:18;96981.63;;;15.80;100.00
72721;BME280;60835;50.974;10.322;2022-10-16T07:13:46;97009.63;;;15.71;100.00
72721;BME280;60835;50.974;10.322;2022-10-16T07:16:25;97092.84;;;15.73;100.00
72721;BME280;60835;50.974;10.322;2022-10-16T07:18:54;97164.16;;;15.84;100.00
72721;BME280;60835;50.974;10.322;2022-10-16T07:21:26;97200.56;;;15.97;100.00
72721;BME280;60835;50.974;10.322;2022-10-16T07:23:55;97221.78;;;16.10;100.00
72721;BME280;60835;50.974;10.322;2022-10-16T07:26:23;97276.34;;;16.39;100.00
72721;BME280;60835;50.974;10.322;2022-10-16T07:28:50;97352.53;;;16.66;100.00
72721;BME280;60835;50.974;10.322;2022-10-16T07:31:18;97387.34;;;16.53;100.00
72721;BME280;60835;50.974;10.322;2022-10-16T07:33:46;97386.34;;;16.48;100.00
72721;BME280;60835;50.974;10.322;2022-10-16T07:36:16;97416.47;;;16.61;100.00
72721;BME280;60835;50.974;10.322;2022-10-16T07:38:43;97431.06;;;16.52;100.00
72721;BME280;60835;50.974;10.322;2022-10-16T07:41:12;97441.66;;;16.34;100.00
72721;BME280;60835;50.974;10.322;2022-10-16T07:43:39;97437.91;;;16.41;100.00
72721;BME280;60835;50.974;10.322;2022-10-16T07:46:06;97438.13;;;16.40;100.00
72721;BME280;60835;50.974;10.322;2022-10-16T07:48:33;97434.28;;;16.36;100.00
72721;BME280;60835;50.974;10.322;2022-10-16T07:51:02;97435.44;;;16.47;100.00
72721;BME280;60835;50.974;10.322;2022-10-16T07:53:29;97450.22;;;16.49;100.00
72721;BME280;60835;50.974;10.322;2022-10-16T07:56:00;97442.44;;;16.41;100.00
72721;BME280;60835;50.974;10.322;2022-10-16T07:58:27;97454.31;;;16.45;100.00
72721;BME280;60835;50.974;10.322;2022-10-16T08:00:55;97421.94;;;16.35;100.00
72721;BME280;60835;50.974;10.322;2022-10-16T08:03:22;97411.19;;;16.55;100.00
72721;BME280;60835;50.974;10.322;2022-10-16T08:05:49;97449.72;;;16.65;100.00
72721;BME280;60835;50.974;10.322;2022-10-16T08:08:17;97463.41;;;16.75;100.00
72721;BME280;60835;50.974;10.322;2022-10-16T08:10:44;97487.97;;;16.59;100.00
72721;BME280;60835;50.974;10.322;2022-10-16T08:13:11;97468.22;;;16.60;100.00
72721;BME280;60835;50.974;10.322;2022-10-16T08:15:42;97467.91;;;16.37;100.00
72721;BME280;60835;50.974;10.322;2022-10-16T08:18:09;97454.56;;;16.37;100.00
72721;BME280;60835;50.974;10.322;2022-10-16T08:20:36;97433.09;;;16.25;100.00
72721;BME280;60835;50.974;10.322;2022-10-16T08:23:02;97439.13;;;16.45;100.00
72721;BME280;60835;50.974;10.322;2022-10-16T08:25:29;97400.94;;;16.45;100.00
72721;BME280;60835;50.974;10.322;2022-10-16T08:27:56;97424.53;;;16.79;100.00
72721;BME280;60835;50.974;10.322;2022-10-16T08:30:23;97461.81;;;16.92;100.00
72721;BME280;60835;50.974;10.322;2022-10-16T08:32:50;97443.91;;;16.68;100.00
72721;BME280;60835;50.974;10.322;2022-10-16T08:35:17;97450.81;;;16.82;100.00
72721;BME280;60835;50.974;10.322;2022-10-16T08:37:43;97468.66;;;16.88;100.00
72721;BME280;60835;50.974;10.322;2022-10-16T08:40:19;97449.22;;;16.75;100.00
72721;BME280;60835;50.974;10.322;2022-10-16T08:48:14;97491.00;;;16.94;100.00
72721;BME280;60835;50.974;10.322;2022-10-16T08:50:43;97481.31;;;16.68;100.00
72721;BME280;60835;50.974;10.322;2022-10-16T08:53:16;97455.47;;;16.93;100.00
72721;BME280;60835;50.974;10.322;2022-10-16T08:55:52;97415.09;;;16.77;100.00
72721;BME280;60835;50.974;10.322;2022-10-16T08:58:25;97388.63;;;16.75;100.00
72721;BME280;60835;50.974;10.322;2022-10-16T09:00:58;97364.16;;;16.47;100.00
72721;BME280;60835;50.974;10.322;2022-10-16T09:06:34;97312.06;;;17.05;100.00
72721;BME280;60835;50.974;10.322;2022-10-16T09:11:45;97425.66;;;17.39;100.00
72721;BME280;60835;50.974;10.322;2022-10-16T09:22:39;97461.81;;;17.42;100.00
72721;BME280;60835;50.974;10.322;2022-10-16T09:25:13;97504.03;;;17.58;100.00
72721;BME280;60835;50.974;10.322;2022-10-16T09:27:42;97497.50;;;18.27;100.00
72721;BME280;60835;50.974;10.322;2022-10-16T09:30:16;97662.84;;;19.33;100.00
72721;BME280;60835;50.974;10.322;2022-10-16T09:32:45;97789.59;;;19.77;100.00
72721;BME280;60835;50.974;10.322;2022-10-16T09:35:15;97827.47;;;19.14;100.00
72721;BME280;60835;50.974;10.322;2022-10-16T09:37:44;97780.00;;;18.36;100.00
72721;BME280;60835;50.974;10.322;2022-10-16T09:40:23;97749.88;;;19.01;100.00
72721;BME280;60835;50.974;10.322;2022-10-16T09:45:37;97720.69;;;18.57;100.00
72721;BME280;60835;50.974;10.322;2022-10-16T09:48:12;97570.69;;;18.20;100.00
72721;BME280;60835;50.974;10.322;2022-10-16T09:50:39;97467.19;;;17.96;100.00
72721;BME280;60835;50.974;10.322;2022-10-16T09:53:11;97373.22;;;18.04;100.00
72721;BME280;60835;50.974;10.322;2022-10-16T09:55:48;97367.59;;;18.24;100.00
72721;BME280;60835;50.974;10.322;2022-10-16T09:58:15;97373.78;;;18.89;100.00
72721;BME280;60835;50.974;10.322;2022-10-16T10:00:49;97520.81;;;20.59;100.00
72721;BME280;60835;50.974;10.322;2022-10-16T10:03:37;97922.84;;;21.25;100.00
72721;BME280;60835;50.974;10.322;2022-10-16T10:06:16;98176.22;;;21.22;100.00
72721;BME280;60835;50.974;10.322;2022-10-16T10:12:00;98329.09;;;22.32;100.00
72721;BME280;60835;50.974;10.322;2022-10-16T10:14:31;98437.94;;;23.26;100.00
72721;BME280;60835;50.974;10.322;2022-10-16T10:17:10;98535.13;;;23.26;100.00
72721;BME280;60835;50.974;10.322;2022-10-16T10:19:57;98539.66;;;22.72;100.00
72721;BME280;60835;50.974;10.322;2022-10-16T10:22:38;98596.88;;;23.34;100.00
72721;BME280;60835;50.974;10.322;2022-10-16T10:31:17;98636.75;;;22.54;100.00
72721;BME280;60835;50.974;10.322;2022-10-16T10:36:23;98580.81;;;21.52;100.00
72721;BME280;60835;50.974;10.322;2022-10-16T10:38:58;98558.34;;;20.40;100.00
72721;BME280;60835;50.974;10.322;2022-10-16T10:41:27;98574.13;;;20.68;100.00
72721;BME280;60835;50.974;10.322;2022-10-16T10:46:42;98610.56;;;20.95;100.00
72721;BME280;60835;50.974;10.322;2022-10-16T10:49:24;98568.13;;;20.65;100.00
72721;BME280;60835;50.974;10.322;2022-10-16T10:58:10;98653.94;;;21.05;100.00
72721;BME280;60835;50.974;10.322;2022-10-16T11:00:50;98666.56;;;20.67;100.00
72721;BME280;60835;50.974;10.322;2022-10-16T11:06:09;98711.50;;;22.47;100.00
72721;BME280;60835;50.974;10.322;2022-10-16T11:08:45;98755.44;;;22.72;100.00
72721;BME280;60835;50.974;10.322;2022-10-16T11:11:38;98748.47;;;21.28;100.00
72721;BME280;60835;50.974;10.322;2022-10-16T11:16:56;98718.00;;;20.77;100.00
72721;BME280;60835;50.974;10.322;2022-10-16T11:22:47;98733.44;;;21.01;100.00
72721;BME280;60835;50.974;10.322;2022-10-16T11:27:48;98791.66;;;22.09;100.00
72721;BME280;60835;50.974;10.322;2022-10-16T11:30:26;98778.84;;;22.96;100.00
72721;BME280;60835;50.974;10.322;2022-10-16T11:41:19;99015.28;;;25.90;100.00
72721;BME280;60835;50.974;10.322;2022-10-16T11:44:16;99010.94;;;24.18;100.00
72721;BME280;60835;50.974;10.322;2022-10-16T11:46:52;99007.41;;;24.77;100.00
72721;BME280;60835;50.974;10.322;2022-10-16T11:49:45;99044.41;;;24.54;100.00
72721;BME280;60835;50.974;10.322;2022-10-16T11:52:22;98987.56;;;23.51;100.00
72721;BME280;60835;50.974;10.322;2022-10-16T11:54:56;99053.25;;;25.02;100.00
72721;BME280;60835;50.974;10.322;2022-10-16T11:57:34;99039.16;;;23.86;100.00
72721;BME280;60835;50.974;10.322;2022-10-16T12:00:10;99020.88;;;24.36;100.00
72721;BME280;60835;50.974;10.322;2022-10-16T12:05:32;99030.28;;;23.12;100.00
72721;BME280;60835;50.974;10.322;2022-10-16T12:08:12;99043.41;;;25.19;100.00
72721;BME280;60835;50.974;10.322;2022-10-16T12:10:41;99056.25;;;24.53;100.00
72721;BME280;60835;50.974;10.322;2022-10-16T12:18:43;99055.84;;;25.85;100.00
72721;BME280;60835;50.974;10.322;2022-10-16T12:21:11;99080.22;;;25.50;100.00
72721;BME280;60835;50.974;10.322;2022-10-16T12:23:54;99104.16;;;27.64;100.00
72721;BME280;60835;50.974;10.322;2022-10-16T12:26:44;99096.44;;;26.43;100.00
72721;BME280;60835;50.974;10.322;2022-10-16T12:29:26;99069.88;;;25.06;100.00
72721;BME280;60835;50.974;10.322;2022-10-16T12:31:55;99062.22;;;24.43;100.00
72721;BME280;60835;50.974;10.322;2022-10-16T12:36:53;99028.63;;;23.96;100.00
72721;BME280;60835;50.974;10.322;2022-10-16T12:39:24;98973.19;;;22.90;100.00
72721;BME280;60835;50.974;10.322;2022-10-16T12:42:17;98985.78;;;22.71;100.00
72721;BME280;60835;50.974;10.322;2022-10-16T12:44:45;98971.38;;;23.09;100.00
72721;BME280;60835;50.974;10.322;2022-10-16T12:52:49;98868.78;;;22.10;100.00
72721;BME280;60835;50.974;10.322;2022-10-16T12:55:17;98905.19;;;22.81;100.00
72721;BME280;60835;50.974;10.322;2022-10-16T12:58:00;98902.53;;;22.43;100.00
72721;BME280;60835;50.974;10.322;2022-10-16T13:01:21;98917.84;;;22.50;100.00
72721;BME280;60835;50.974;10.322;2022-10-16T13:14:35;98883.88;;;22.11;100.00
72721;BME280;60835;50.974;10.322;2022-10-16T13:17:24;98876.63;;;21.03;100.00
72721;BME280;60835;50.974;10.322;2022-10-16T13:25:49;98777.44;;;20.55;100.00
72721;BME280;60835;50.974;10.322;2022-10-16T13:28:28;98781.03;;;21.00;100.00
72721;BME280;60835;50.974;10.322;2022-10-16T13:30:58;98790.97;;;21.57;100.00
72721;BME280;60835;50.974;10.322;2022-10-16T13:33:35;98816.09;;;21.38;100.00
72721;BME280;60835;50.974;10.322;2022-10-16T13:36:03;98805.72;;;21.86;100.00
72721;BME280;60835;50.974;10.322;2022-10-16T13:38:32;98805.13;;;21.77;100.00
72721;BME280;60835;50.974;10.322;2022-10-16T13:41:17;98793.47;;;21.52;100.00
72721;BME280;60835;50.974;10.322;2022-10-16T13:43:46;98796.78;;;21.54;100.00
72721;BME280;60835;50.974;10.322;2022-10-16T13:46:19;98782.19;;;21.31;100.00
72721;BME280;60835;50.974;10.322;2022-10-16T13:49:00;98786.31;;;21.33;100.00
72721;BME280;60835;50.974;10.322;2022-10-16T13:51:29;98773.00;;;20.94;100.00
72721;BME280;60835;50.974;10.322;2022-10-16T13:53:56;98775.97;;;21.30;100.00
72721;BME280;60835;50.974;10.322;2022-10-16T13:56:28;98804.69;;;21.80;100.00
72721;BME280;60835;50.974;10.322;2022-10-16T13:59:04;98800.25;;;21.61;100.00
72721;BME280;60835;50.974;10.322;2022-10-16T14:01:42;98774.16;;;20.40;100.00
72721;BME280;60835;50.974;10.322;2022-10-16T14:04:11;98729.91;;;20.43;100.00
72721;BME280;60835;50.974;10.322;2022-10-16T14:06:46;98752.22;;;20.43;100.00
72721;BME280;60835;50.974;10.322;2022-10-16T14:09:33;98741.69;;;20.48;100.00
72721;BME280;60835;50.974;10.322;2022-10-16T14:12:07;98764.50;;;20.97;100.00
72721;BME280;60835;50.974;10.322;2022-10-16T14:14:43;98755.09;;;20.61;100.00
72721;BME280;60835;50.974;10.322;2022-10-16T14:17:20;98767.84;;;20.86;100.00
72721;BME280;60835;50.974;10.322;2022-10-16T14:19:50;98779.47;;;20.67;100.00
72721;BME280;60835;50.974;10.322;2022-10-16T14:24:57;98767.94;;;20.33;100.00
72721;BME280;60835;50.974;10.322;2022-10-16T14:27:35;98740.25;;;20.13;100.00
72721;BME280;60835;50.974;10.322;2022-10-16T14:30:21;98743.75;;;20.33;100.00
72721;BME280;60835;50.974;10.322;2022-10-16T14:33:05;98736.91;;;20.50;100.00
72721;BME280;60835;50.974;10.322;2022-10-16T14:35:33;98758.22;;;20.19;100.00
72721;BME280;60835;50.974;10.322;2022-10-16T14:38:03;98736.94;;;19.85;100.00
72721;BME280;60835;50.974;10.322;2022-10-16T14:40:32;98708.41;;;20.17;100.00
72721;BME280;60835;50.974;10.322;2022-10-16T14:43:00;98742.09;;;20.45;100.00
72721;BME280;60835;50.974;10.322;2022-10-16T14:45:30;98740.66;;;20.43;100.00
72721;BME280;60835;50.974;10.322;2022-10-16T14:48:01;98676.41;;;19.63;100.00
72721;BME280;60835;50.974;10.322;2022-10-16T14:50:29;98693.94;;;20.04;100.00
72721;BME280;60835;50.974;10.322;2022-10-16T14:52:55;98695.63;;;19.86;100.00